createdAt,value
2022-09-09T00:00:15.749Z,19.10
2022-09-09T00:00:39.862Z,18.35
2022-09-09T00:01:21.736Z,20.63
2022-09-09T00:01:52.390Z,19.17
2022-09-09T00:02:30.250Z,17.92
2022-09-09T00:03:15.553Z,18.90
2022-09-09T00:04:00.981Z,18.33
2022-09-09T00:04:35.891Z,21.50
2022-09-09T00:05:14.199Z,18.50
2022-09-09T00:05:55.720Z,16.67
2022-09-09T00:06:26.868Z,17.40
2022-09-09T00:07:25.642Z,18.42
2022-09-09T00:07:54.492Z,16.17
2022-09-09T00:08:34.852Z,18.20
2022-09-09T00:09:18.302Z,20.02
2022-09-09T00:10:10.433Z,21.58
2022-09-09T00:10:40.675Z,19.23
2022-09-09T00:11:06.302Z,20.13
2022-09-09T00:11:37.669Z,18.85
2022-09-09T00:12:07.322Z,18.58
2022-09-09T00:12:50.461Z,17.30
2022-09-09T00:13:30.473Z,20.17
2022-09-09T00:13:55.939Z,18.33
2022-09-09T00:14:31.998Z,15.95
2022-09-09T00:15:21.733Z,18.73
2022-09-09T00:15:55.870Z,17.17
2022-09-09T00:16:29.518Z,18.58
2022-09-09T00:16:57.167Z,17.73
2022-09-09T00:17:43.972Z,19.70
2022-09-09T00:18:43.185Z,25.25
2022-09-09T00:19:27.698Z,17.48
2022-09-09T00:20:03.400Z,18.45
2022-09-09T00:20:30.583Z,20.05
2022-09-09T00:21:19.122Z,20.27
2022-09-09T00:22:15.061Z,17.80
2022-09-09T00:22:40.095Z,16.73
2022-09-09T00:23:16.885Z,18.45
2022-09-09T00:23:47.774Z,19.20
2022-09-09T00:24:20.641Z,17.73
2022-09-09T00:24:47.570Z,20.25
2022-09-09T00:25:17.924Z,19.60
2022-09-09T00:26:00.067Z,19.45
2022-09-09T00:26:43.376Z,17.60
2022-09-09T00:27:15.870Z,17.60
2022-09-09T00:27:48.091Z,18.27
2022-09-09T00:28:20.306Z,18.35
2022-09-09T00:28:59.445Z,15.55
2022-09-09T00:29:48.448Z,17.20
2022-09-09T00:30:20.790Z,18.25
2022-09-09T00:30:42.922Z,17.13
2022-09-09T00:31:21.099Z,17.40
2022-09-09T00:31:43.401Z,17.98
2022-09-09T00:32:19.601Z,15.25
2022-09-09T00:32:41.816Z,16.50
2022-09-09T00:33:16.547Z,18.08
2022-09-09T00:33:41.452Z,16.60
2022-09-09T00:34:25.609Z,16.60
2022-09-09T00:34:54.947Z,17.58
2022-09-09T00:35:26.870Z,18.50
2022-09-09T00:35:52.324Z,19.73
2022-09-09T00:36:17.038Z,19.45
2022-09-09T00:36:40.189Z,16.10
2022-09-09T00:37:04.403Z,15.95
2022-09-09T00:37:27.643Z,16.92
2022-09-09T00:37:54.177Z,17.83
2022-09-09T00:38:38.202Z,15.45
2022-09-09T00:39:03.817Z,15.45
2022-09-09T00:39:25.678Z,16.75
2022-09-09T00:39:49.318Z,16.48
2022-09-09T00:40:35.307Z,17.42
2022-09-09T00:41:08.824Z,15.93
2022-09-09T00:41:49.099Z,18.00
2022-09-09T00:42:45.701Z,15.95
2022-09-09T00:43:31.238Z,17.48
2022-09-09T00:44:22.621Z,20.42
2022-09-09T00:44:56.725Z,15.25
2022-09-09T00:45:52.488Z,16.02
2022-09-09T00:46:32.868Z,15.60
2022-09-09T00:47:40.692Z,17.90
2022-09-09T00:48:12.912Z,18.02
2022-09-09T00:49:02.750Z,16.05
2022-09-09T00:50:01.436Z,18.75
2022-09-09T00:50:50.450Z,17.35
2022-09-09T00:51:43.256Z,18.25
2022-09-09T00:52:24.303Z,16.70
2022-09-09T00:52:59.397Z,19.35
2022-09-09T00:53:34.918Z,17.08
2022-09-09T00:54:21.468Z,16.98
2022-09-09T00:55:13.975Z,16.65
2022-09-09T00:56:05.501Z,17.77
2022-09-09T00:56:37.038Z,18.20
2022-09-09T00:57:24.983Z,19.27
2022-09-09T00:57:49.358Z,15.43
2022-09-09T00:58:11.129Z,17.73
2022-09-09T00:58:38.427Z,17.33
2022-09-09T00:59:28.467Z,16.83
2022-09-09T01:00:16.120Z,18.15
2022-09-09T01:01:12.593Z,17.17
2022-09-09T01:01:36.721Z,16.67
2022-09-09T01:02:00.299Z,16.73
2022-09-09T01:02:30.537Z,17.60
2022-09-09T01:03:21.701Z,15.63
2022-09-09T01:03:51.625Z,16.33
2022-09-09T01:04:23.702Z,19.63
2022-09-09T01:04:45.708Z,17.45
2022-09-09T01:05:21.570Z,18.00
2022-09-09T01:06:53.858Z,18.48
2022-09-09T01:07:20.107Z,22.00
2022-09-09T01:07:48.981Z,18.17
2022-09-09T01:08:36.147Z,18.17
2022-09-09T01:09:19.188Z,18.60
2022-09-09T01:09:52.476Z,16.98
2022-09-09T01:10:39.525Z,16.67
2022-09-09T01:11:03.250Z,19.83
2022-09-09T01:11:46.766Z,18.67
2022-09-09T01:12:17.443Z,17.05
2022-09-09T01:12:44.820Z,17.65
2022-09-09T01:13:14.834Z,18.75
2022-09-09T01:13:37.455Z,16.25
2022-09-09T01:14:34.155Z,20.00
2022-09-09T01:15:09.886Z,18.25
2022-09-09T01:15:33.766Z,15.30
2022-09-09T01:15:59.842Z,18.33
2022-09-09T01:16:27.112Z,20.15
2022-09-09T01:16:50.249Z,19.35
2022-09-09T01:17:36.126Z,17.17
2022-09-09T01:18:06.166Z,17.67
2022-09-09T01:18:35.627Z,16.98
2022-09-09T01:18:59.665Z,19.30
2022-09-09T01:19:36.976Z,17.08
2022-09-09T01:20:34.898Z,17.45
2022-09-09T01:21:03.444Z,20.40
2022-09-09T01:21:46.547Z,16.73
2022-09-09T01:22:19.887Z,18.13
2022-09-09T01:22:46.476Z,17.80
2022-09-09T01:23:50.128Z,17.77
2022-09-09T01:24:14.874Z,16.70
2022-09-09T01:24:55.559Z,15.77
2022-09-09T01:25:41.700Z,17.17
2022-09-09T01:26:11.945Z,18.40
2022-09-09T01:26:38.416Z,19.67
2022-09-09T01:27:03.664Z,15.38
2022-09-09T01:27:26.453Z,17.00
2022-09-09T01:27:50.745Z,18.63
2022-09-09T01:28:23.069Z,16.42
2022-09-09T01:28:51.144Z,17.58
2022-09-09T01:29:18.759Z,18.13
2022-09-09T01:29:42.382Z,16.33
2022-09-09T01:30:13.719Z,16.98
2022-09-09T01:30:41.526Z,17.55
2022-09-09T01:31:07.837Z,16.45
2022-09-09T01:31:53.389Z,16.08
2022-09-09T01:32:40.555Z,16.58
2022-09-09T01:33:03.880Z,18.40
2022-09-09T01:33:26.071Z,16.13
2022-09-09T01:33:48.798Z,18.15
2022-09-09T01:34:13.492Z,17.75
2022-09-09T01:34:40.140Z,16.15
2022-09-09T01:35:03.266Z,17.55
2022-09-09T01:35:42.549Z,16.95
2022-09-09T01:36:47.513Z,14.57
2022-09-09T01:37:13.124Z,19.27
2022-09-09T01:37:34.901Z,18.60
2022-09-09T01:37:57.189Z,16.58
2022-09-09T01:38:19.611Z,17.15
2022-09-09T01:38:42.286Z,16.40
2022-09-09T01:39:04.216Z,20.52
2022-09-09T01:39:26.982Z,21.15
2022-09-09T01:39:49.546Z,19.65
2022-09-09T01:40:11.817Z,19.75
2022-09-09T01:40:37.154Z,15.40
2022-09-09T01:40:59.658Z,17.20
2022-09-09T01:41:22.655Z,17.05
2022-09-09T01:41:45.222Z,19.63
2022-09-09T01:42:10.519Z,18.45
2022-09-09T01:42:32.630Z,16.70
2022-09-09T01:42:55.361Z,16.10
2022-09-09T01:43:18.397Z,16.88
2022-09-09T01:43:40.803Z,16.30
2022-09-09T01:44:03.748Z,17.67
2022-09-09T01:44:27.359Z,20.88
2022-09-09T01:44:49.132Z,20.00
2022-09-09T01:45:11.680Z,15.93
2022-09-09T01:45:34.515Z,17.80
2022-09-09T01:46:00.131Z,20.02
2022-09-09T01:46:28.188Z,18.42
2022-09-09T01:46:50.522Z,18.80
2022-09-09T01:47:12.373Z,17.85
2022-09-09T01:47:34.334Z,16.83
2022-09-09T01:47:57.492Z,16.38
2022-09-09T01:48:23.706Z,16.98
2022-09-09T01:48:46.873Z,15.25
2022-09-09T01:49:10.025Z,17.70
2022-09-09T01:49:33.800Z,16.20
2022-09-09T01:49:55.878Z,15.82
2022-09-09T01:50:18.130Z,16.80
2022-09-09T01:50:39.877Z,16.30
2022-09-09T01:51:01.631Z,16.75
2022-09-09T01:51:24.201Z,15.73
2022-09-09T01:51:50.786Z,15.85
2022-09-09T01:52:12.633Z,17.67
2022-09-09T01:52:39.730Z,17.42
2022-09-09T01:53:04.278Z,15.35
2022-09-09T01:53:29.161Z,16.58
2022-09-09T01:53:51.553Z,15.95
2022-09-09T01:54:13.990Z,16.98
2022-09-09T01:54:36.696Z,19.00
2022-09-09T01:54:59.046Z,17.15
2022-09-09T01:55:38.951Z,15.88
2022-09-09T01:56:09.227Z,15.50
2022-09-09T01:56:51.252Z,17.50
2022-09-09T01:57:27.978Z,17.33
2022-09-09T01:58:13.569Z,16.67
2022-09-09T01:59:02.967Z,16.25
2022-09-09T01:59:52.230Z,16.52
2022-09-09T02:00:15.932Z,16.50
2022-09-09T02:00:43.096Z,16.35
2022-09-09T02:01:16.346Z,17.70
2022-09-09T02:02:06.565Z,16.65
2022-09-09T02:02:48.199Z,16.67
2022-09-09T02:03:29.869Z,17.33
2022-09-09T02:03:57.308Z,17.70
2022-09-09T02:04:38.079Z,20.48
2022-09-09T02:05:31.439Z,19.35
2022-09-09T02:06:11.759Z,16.48
2022-09-09T02:06:40.919Z,18.85
2022-09-09T02:07:02.817Z,19.77
2022-09-09T02:07:47.663Z,17.27
2022-09-09T02:08:14.578Z,16.42
2022-09-09T02:08:51.713Z,16.08
2022-09-09T02:09:14.972Z,17.67
2022-09-09T02:09:38.945Z,17.27
2022-09-09T02:10:23.344Z,16.63
2022-09-09T02:10:57.740Z,17.80
2022-09-09T02:11:31.867Z,16.38
2022-09-09T02:12:16.607Z,17.90
2022-09-09T02:12:45.327Z,18.40
2022-09-09T02:13:12.642Z,16.63
2022-09-09T02:13:37.237Z,17.00
2022-09-09T02:14:23.931Z,17.00
2022-09-09T02:14:56.521Z,16.65
2022-09-09T02:15:31.375Z,16.67
2022-09-09T02:16:08.942Z,17.45
2022-09-09T02:16:41.869Z,16.67
2022-09-09T02:17:11.154Z,19.83
2022-09-09T02:17:36.977Z,17.27
2022-09-09T02:17:59.868Z,17.17
2022-09-09T02:18:32.729Z,16.40
2022-09-09T02:19:16.650Z,16.65
2022-09-09T02:20:11.394Z,19.48
2022-09-09T02:20:35.180Z,18.67
2022-09-09T02:20:59.087Z,17.48
2022-09-09T02:21:23.181Z,18.98
2022-09-09T02:21:52.042Z,19.60
2022-09-09T02:22:25.839Z,18.10
2022-09-09T02:22:51.527Z,18.88
2022-09-09T02:23:15.527Z,17.80
2022-09-09T02:23:45.355Z,18.38
2022-09-09T02:24:11.356Z,17.98
2022-09-09T02:24:38.860Z,20.40
2022-09-09T02:25:01.644Z,16.15
2022-09-09T02:25:43.380Z,17.73
2022-09-09T02:26:16.250Z,16.67
2022-09-09T02:26:46.542Z,16.88
2022-09-09T02:27:22.108Z,18.58
2022-09-09T02:27:46.460Z,18.00
2022-09-09T02:28:10.979Z,18.48
2022-09-09T02:28:38.611Z,16.52
2022-09-09T02:29:25.440Z,17.17
2022-09-09T02:30:00.217Z,17.27
2022-09-09T02:31:26.830Z,18.42
2022-09-09T02:32:24.378Z,19.40
2022-09-09T02:34:02.785Z,18.38
2022-09-09T02:34:40.435Z,17.77
2022-09-09T02:35:08.218Z,17.83
2022-09-09T02:35:31.554Z,18.80
2022-09-09T02:35:55.004Z,18.13
2022-09-09T02:36:17.774Z,18.48
2022-09-09T02:36:42.607Z,18.98
2022-09-09T02:37:07.951Z,17.58
2022-09-09T02:37:45.100Z,18.90
2022-09-09T02:38:14.064Z,18.27
2022-09-09T02:38:41.164Z,24.58
2022-09-09T02:39:04.191Z,18.52
2022-09-09T02:39:27.509Z,19.70
2022-09-09T02:39:49.397Z,18.35
2022-09-09T02:40:14.488Z,18.73
2022-09-09T02:40:36.567Z,16.02
2022-09-09T02:40:59.365Z,16.00
2022-09-09T02:41:27.448Z,16.02
2022-09-09T02:41:49.731Z,16.52
2022-09-09T02:42:11.919Z,18.55
2022-09-09T02:42:39.220Z,20.00
2022-09-09T02:43:01.449Z,16.23
2022-09-09T02:43:25.044Z,18.52
2022-09-09T02:43:52.949Z,15.82
2022-09-09T02:44:25.736Z,16.17
2022-09-09T02:44:47.886Z,18.48
2022-09-09T02:45:11.700Z,16.83
2022-09-09T02:45:43.533Z,18.73
2022-09-09T02:46:26.102Z,18.50
2022-09-09T02:47:26.215Z,18.38
2022-09-09T02:48:15.897Z,18.17
2022-09-09T02:48:54.242Z,17.35
2022-09-09T02:49:22.137Z,18.08
2022-09-09T02:50:14.430Z,16.27
2022-09-09T02:51:01.966Z,16.23
2022-09-09T02:51:28.166Z,18.25
2022-09-09T02:51:58.904Z,17.80
2022-09-09T02:52:37.240Z,19.00
2022-09-09T02:53:17.513Z,17.00
2022-09-09T02:53:56.100Z,16.63
2022-09-09T02:54:33.115Z,18.00
2022-09-09T02:55:04.055Z,17.85
2022-09-09T02:55:41.258Z,17.43
2022-09-09T02:56:31.761Z,18.85
2022-09-09T02:56:58.845Z,16.75
2022-09-09T02:57:58.033Z,19.58
2022-09-09T02:59:12.796Z,18.65
2022-09-09T03:01:22.136Z,16.85
2022-09-09T03:02:09.816Z,17.08
2022-09-09T03:02:33.779Z,17.80
2022-09-09T03:02:56.427Z,17.38
2022-09-09T03:03:20.766Z,19.42
2022-09-09T03:04:19.099Z,14.25
2022-09-09T03:04:43.053Z,18.13
2022-09-09T03:05:06.198Z,18.63
2022-09-09T03:05:28.973Z,19.02
2022-09-09T03:05:50.972Z,18.63
2022-09-09T03:06:12.901Z,15.98
2022-09-09T03:06:35.584Z,19.67
2022-09-09T03:06:58.103Z,20.85
2022-09-09T03:07:20.914Z,18.52
2022-09-09T03:07:42.773Z,18.20
2022-09-09T03:08:06.586Z,20.10
2022-09-09T03:09:25.115Z,18.00
2022-09-09T03:13:39.987Z,17.05
2022-09-09T03:16:06.208Z,16.45
2022-09-09T03:18:44.300Z,17.50
2022-09-09T03:19:07.298Z,17.40
2022-09-09T03:19:32.285Z,15.68
2022-09-09T03:19:55.742Z,18.58
2022-09-09T03:20:18.181Z,19.27
2022-09-09T03:20:42.092Z,18.42
2022-09-09T03:22:07.674Z,16.75
2022-09-09T03:22:30.035Z,18.17
2022-09-09T03:22:52.709Z,17.15
2022-09-09T03:23:15.972Z,17.40
2022-09-09T03:23:38.792Z,14.82
2022-09-09T03:24:01.412Z,18.35
2022-09-09T03:24:24.143Z,18.90
2022-09-09T03:25:35.201Z,18.92
2022-09-09T03:25:59.999Z,17.63
2022-09-09T03:26:22.319Z,20.02
2022-09-09T03:26:45.912Z,19.10
2022-09-09T03:27:08.407Z,17.38
2022-09-09T03:27:31.521Z,17.67
2022-09-09T03:27:56.072Z,16.60
2022-09-09T03:28:18.439Z,16.42
2022-09-09T03:28:40.468Z,15.80
2022-09-09T03:29:02.577Z,16.88
2022-09-09T03:29:26.914Z,15.65
2022-09-09T03:29:52.243Z,15.55
2022-09-09T03:30:16.420Z,16.55
2022-09-09T03:30:39.115Z,15.23
2022-09-09T03:32:21.471Z,15.32
2022-09-09T03:32:47.150Z,17.85
2022-09-09T03:33:11.000Z,15.07
2022-09-09T03:33:35.393Z,16.33
2022-09-09T03:34:00.455Z,18.27
2022-09-09T03:34:23.136Z,17.13
2022-09-09T03:34:46.235Z,16.75
2022-09-09T03:35:09.314Z,16.40
2022-09-09T03:35:31.194Z,17.67
2022-09-09T03:35:53.548Z,18.52
2022-09-09T03:36:17.567Z,19.00
2022-09-09T03:36:39.985Z,16.35
2022-09-09T03:39:06.144Z,17.27
2022-09-09T03:39:28.481Z,16.50
2022-09-09T03:39:50.686Z,18.50
2022-09-09T03:41:36.369Z,19.55
2022-09-09T03:41:58.581Z,16.83
2022-09-09T03:42:21.112Z,16.00
2022-09-09T03:42:49.489Z,17.83
2022-09-09T03:43:14.613Z,15.77
2022-09-09T03:43:37.684Z,14.18
2022-09-09T03:44:43.209Z,16.45
2022-09-09T03:45:12.778Z,17.63
2022-09-09T03:45:40.951Z,16.45
2022-09-09T03:46:31.762Z,16.75
2022-09-09T03:46:55.124Z,18.13
2022-09-09T03:47:29.668Z,18.42
2022-09-09T03:48:51.846Z,17.40
2022-09-09T03:49:15.965Z,16.10
2022-09-09T03:50:05.400Z,16.55
2022-09-09T03:50:58.296Z,15.23
2022-09-09T03:51:31.510Z,17.75
2022-09-09T03:52:23.934Z,16.75
2022-09-09T03:52:47.644Z,18.15
2022-09-09T03:53:11.329Z,17.42
2022-09-09T03:53:34.377Z,16.42
2022-09-09T03:54:12.118Z,17.50
2022-09-09T03:55:32.758Z,16.27
2022-09-09T07:27:37.392Z,12.23
2022-09-09T07:27:59.572Z,14.32
2022-09-09T07:28:22.498Z,16.10
2022-09-09T07:28:44.992Z,13.55
2022-09-09T07:29:09.688Z,14.68
2022-09-09T07:29:36.516Z,13.40
2022-09-09T07:30:00.288Z,14.90
2022-09-09T07:30:27.033Z,14.27
2022-09-09T07:31:03.770Z,14.38
2022-09-09T07:31:37.895Z,13.68
2022-09-09T07:32:00.570Z,15.65
2022-09-09T07:32:28.010Z,15.50
2022-09-09T07:32:53.219Z,14.15
2022-09-09T07:33:15.414Z,13.52
2022-09-09T07:33:37.856Z,15.77
2022-09-09T07:34:03.649Z,13.85
2022-09-09T07:34:26.008Z,14.48
2022-09-09T07:34:48.120Z,13.52
2022-09-09T07:35:13.724Z,12.75
2022-09-09T07:35:38.629Z,15.07
2022-09-09T07:36:13.687Z,15.20
2022-09-09T07:36:40.435Z,14.23
2022-09-09T07:37:03.132Z,16.17
2022-09-09T07:37:37.689Z,13.27
2022-09-09T07:38:02.926Z,16.30
2022-09-09T07:38:24.859Z,16.05
2022-09-09T07:38:53.096Z,14.93
2022-09-09T07:39:27.055Z,13.77
2022-09-09T07:39:52.315Z,14.82
2022-09-09T07:40:22.117Z,14.68
2022-09-09T07:40:44.777Z,14.63
2022-09-09T07:41:15.152Z,14.52
2022-09-09T07:41:45.979Z,13.25
2022-09-09T07:42:08.089Z,16.35
2022-09-09T07:42:31.991Z,15.27
2022-09-09T07:42:57.746Z,17.52
2022-09-09T07:43:19.952Z,14.32
2022-09-09T07:43:46.309Z,16.92
2022-09-09T07:44:22.856Z,17.10
2022-09-09T07:44:44.953Z,17.27
2022-09-09T07:45:10.050Z,18.33
2022-09-09T07:45:33.905Z,14.63
2022-09-09T07:46:02.634Z,14.63
2022-09-09T07:46:26.994Z,13.80
2022-09-09T07:46:49.123Z,16.00
2022-09-09T07:47:11.106Z,14.85
2022-09-09T07:47:33.340Z,13.20
2022-09-09T07:47:57.913Z,15.82
2022-09-09T07:48:20.190Z,15.68
2022-09-09T07:48:53.536Z,15.02
2022-09-09T07:49:24.428Z,14.30
2022-09-09T07:49:50.945Z,13.43
2022-09-09T07:50:12.991Z,14.07
2022-09-09T07:50:34.982Z,14.90
2022-09-09T07:51:09.211Z,14.35
2022-09-09T07:51:33.902Z,15.80
2022-09-09T07:51:55.930Z,16.15
2022-09-09T07:52:20.057Z,15.32
2022-09-09T07:52:42.929Z,17.90
2022-09-09T07:53:06.205Z,15.30
2022-09-09T07:53:28.187Z,12.43
2022-09-09T07:53:54.603Z,13.43
2022-09-09T07:54:21.508Z,13.77
2022-09-09T07:54:46.760Z,15.48
2022-09-09T07:55:08.618Z,14.00
2022-09-09T07:55:32.521Z,15.25
2022-09-09T07:59:09.823Z,15.30
2022-09-09T07:59:31.733Z,15.35
2022-09-09T07:59:54.731Z,15.43
2022-09-09T08:00:20.503Z,16.67
2022-09-09T08:00:44.652Z,14.80
2022-09-09T08:01:13.514Z,15.55
2022-09-09T08:01:41.372Z,19.00
2022-09-09T08:02:03.305Z,17.80
2022-09-09T08:02:27.597Z,15.40
2022-09-09T08:02:50.003Z,16.25
2022-09-09T08:03:11.950Z,15.90
2022-09-09T08:03:33.904Z,15.63
2022-09-09T08:04:02.729Z,15.75
2022-09-09T08:04:26.364Z,17.50
2022-09-09T08:04:48.571Z,15.55
2022-09-09T08:05:10.554Z,15.25
2022-09-09T08:05:32.503Z,15.65
2022-09-09T08:05:54.305Z,16.52
2022-09-09T08:06:16.121Z,16.73
2022-09-09T08:06:45.002Z,17.55
2022-09-09T08:07:07.337Z,16.65
2022-09-09T08:07:29.637Z,15.15
2022-09-09T08:07:51.903Z,17.25
2022-09-09T08:08:14.151Z,16.20
2022-09-09T08:08:43.548Z,17.08
2022-09-09T08:09:09.603Z,17.85
2022-09-09T08:09:33.404Z,17.65
2022-09-09T08:09:58.217Z,14.45
2022-09-09T08:10:20.793Z,14.35
2022-09-09T08:10:43.045Z,15.73
2022-09-09T08:11:11.745Z,18.08
2022-09-09T08:11:38.720Z,17.70
2022-09-09T08:12:02.546Z,15.43
2022-09-09T08:12:27.192Z,16.48
2022-09-09T08:13:07.948Z,17.23
2022-09-09T08:13:32.646Z,17.33
2022-09-09T08:14:00.244Z,18.83
2022-09-09T08:14:24.323Z,20.10
2022-09-09T08:14:46.320Z,16.20
2022-09-09T08:15:08.875Z,15.18
2022-09-09T08:15:35.635Z,20.67
2022-09-09T08:16:14.702Z,17.98
2022-09-09T08:16:39.530Z,18.65
2022-09-09T08:17:01.744Z,18.33
2022-09-09T08:17:23.649Z,17.52
2022-09-09T08:17:48.480Z,17.38
2022-09-09T08:18:10.412Z,18.15
2022-09-09T08:18:32.288Z,17.75
2022-09-09T08:18:56.072Z,17.05
2022-09-09T08:19:18.129Z,19.05
2022-09-09T08:19:40.111Z,17.10
2022-09-09T08:20:06.059Z,16.45
2022-09-09T08:20:28.399Z,17.90
2022-09-09T08:20:50.343Z,21.38
2022-09-09T08:21:18.761Z,18.70
2022-09-09T08:21:42.688Z,18.02
2022-09-09T08:22:05.972Z,19.77
2022-09-09T08:22:28.215Z,18.45
2022-09-09T08:22:50.970Z,16.55
2022-09-09T08:23:17.089Z,17.23
2022-09-09T08:23:43.425Z,19.50
2022-09-09T08:24:11.238Z,19.50
2022-09-09T08:24:33.225Z,19.90
2022-09-09T08:24:58.131Z,18.45
2022-09-09T08:25:20.410Z,17.77
2022-09-09T08:25:46.191Z,17.95
2022-09-09T08:26:17.653Z,16.25
2022-09-09T08:26:45.064Z,18.25
2022-09-09T08:27:07.791Z,19.73
2022-09-09T08:27:29.810Z,20.38
2022-09-09T08:28:00.340Z,17.02
2022-09-09T08:28:23.913Z,20.50
2022-09-09T08:28:46.056Z,18.63
2022-09-09T08:29:10.498Z,20.50
2022-09-09T08:29:36.345Z,18.15
2022-09-09T08:30:02.057Z,19.70
2022-09-09T08:30:24.053Z,21.40
2022-09-09T08:30:47.484Z,17.85
2022-09-09T08:31:10.967Z,18.17
2022-09-09T08:31:36.642Z,19.33
2022-09-09T08:32:03.130Z,18.70
2022-09-09T08:32:27.932Z,20.02
2022-09-09T08:32:53.879Z,21.10
2022-09-09T08:33:16.414Z,19.65
2022-09-09T08:33:40.393Z,18.70
2022-09-09T08:34:06.176Z,17.65
2022-09-09T08:34:29.113Z,20.38
2022-09-09T08:34:54.539Z,17.88
2022-09-09T08:35:17.072Z,18.83
2022-09-09T08:35:39.737Z,19.65
2022-09-09T08:36:01.736Z,17.40
2022-09-09T08:36:26.781Z,18.13
2022-09-09T08:36:52.409Z,18.77
2022-09-09T08:37:14.871Z,17.92
2022-09-09T08:37:36.948Z,20.38
2022-09-09T08:37:58.919Z,20.65
2022-09-09T08:38:23.334Z,17.98
2022-09-09T08:38:48.443Z,17.20
2022-09-09T08:39:13.500Z,19.67
2022-09-09T08:39:35.476Z,19.42
2022-09-09T08:39:57.549Z,18.38
2022-09-09T08:40:39.421Z,17.92
2022-09-09T08:41:44.164Z,16.23
2022-09-09T08:42:24.515Z,18.42
2022-09-09T08:42:55.527Z,20.35
2022-09-09T08:43:20.314Z,21.08
2022-09-09T08:43:45.357Z,19.65
2022-09-09T08:44:25.577Z,19.42
2022-09-09T08:44:59.156Z,19.00
2022-09-09T08:45:31.987Z,20.58
2022-09-09T08:46:13.948Z,19.83
2022-09-09T08:46:46.693Z,19.50
2022-09-09T08:47:48.506Z,22.38
2022-09-09T08:48:50.531Z,17.98
2022-09-09T08:49:18.315Z,18.58
2022-09-09T08:50:19.124Z,21.55
2022-09-09T08:50:44.704Z,19.27
2022-09-09T08:51:08.554Z,18.55
2022-09-09T08:51:34.603Z,18.50
2022-09-09T08:51:58.482Z,19.98
2022-09-09T08:52:32.610Z,21.00
2022-09-09T08:53:17.607Z,18.77
2022-09-09T08:53:46.160Z,19.60
2022-09-09T08:54:10.229Z,22.17
2022-09-09T08:54:51.797Z,23.05
2022-09-09T08:55:44.351Z,20.20
2022-09-09T08:56:14.246Z,18.73
2022-09-09T08:56:37.274Z,19.65
2022-09-09T08:56:59.140Z,20.63
2022-09-09T08:57:27.943Z,20.08
2022-09-09T08:57:56.879Z,18.77
2022-09-09T08:58:27.145Z,17.92
2022-09-09T08:58:52.189Z,19.52
2022-09-09T08:59:20.302Z,18.58
2022-09-09T08:59:42.338Z,20.85
2022-09-09T09:00:04.901Z,18.98
2022-09-09T09:00:41.455Z,20.15
2022-09-09T09:01:40.664Z,18.38
2022-09-09T09:02:25.444Z,20.17
2022-09-09T09:03:02.298Z,17.58
2022-09-09T09:03:34.265Z,17.25
2022-09-09T09:04:29.140Z,19.73
2022-09-09T09:05:11.851Z,19.27
2022-09-09T09:05:47.283Z,20.08
2022-09-09T09:06:40.476Z,21.38
2022-09-09T09:07:33.012Z,21.42
2022-09-09T09:08:01.015Z,19.95
2022-09-09T09:09:07.151Z,18.02
2022-09-09T09:09:40.724Z,19.60
2022-09-09T09:10:39.916Z,19.30
2022-09-09T09:11:01.671Z,19.23
2022-09-09T09:11:23.640Z,19.23
2022-09-09T09:11:53.625Z,21.58
2022-09-09T09:12:22.995Z,19.23
2022-09-09T09:12:48.633Z,19.83
2022-09-09T09:13:17.027Z,22.45
2022-09-09T09:13:49.065Z,18.92
2022-09-09T09:14:56.570Z,18.70
2022-09-09T09:15:28.332Z,17.08
2022-09-09T09:15:59.110Z,19.05
2022-09-09T09:16:39.180Z,20.45
2022-09-09T09:17:08.365Z,22.75
2022-09-09T09:17:34.267Z,19.90
2022-09-09T09:17:56.481Z,20.77
2022-09-09T09:18:18.845Z,19.67
2022-09-09T09:18:40.808Z,21.30
2022-09-09T09:19:03.392Z,20.92
2022-09-09T09:19:27.355Z,18.67
2022-09-09T09:19:51.104Z,21.50
2022-09-09T09:20:19.647Z,23.10
2022-09-09T09:21:08.916Z,23.27
2022-09-09T09:21:42.687Z,21.20
2022-09-09T09:22:23.271Z,26.10
2022-09-09T09:22:55.696Z,20.70
2022-09-09T09:23:26.504Z,17.67
2022-09-09T09:24:00.776Z,21.60
2022-09-09T09:24:33.523Z,21.73
2022-09-09T09:25:00.765Z,18.58
2022-09-09T09:25:36.655Z,19.35
2022-09-09T09:26:04.088Z,19.70
2022-09-09T09:26:33.994Z,20.20
2022-09-09T09:26:56.290Z,22.67
2022-09-09T09:27:32.528Z,20.80
2022-09-09T09:28:18.526Z,21.60
2022-09-09T09:28:41.350Z,21.08
2022-09-09T09:29:16.224Z,19.40
2022-09-09T09:30:03.524Z,21.38
2022-09-09T09:30:30.341Z,21.95
2022-09-09T09:31:16.173Z,18.70
2022-09-09T09:31:41.048Z,20.40
2022-09-09T09:32:04.318Z,19.15
2022-09-09T09:32:32.818Z,19.92
2022-09-09T09:33:00.183Z,17.55
2022-09-09T09:33:29.552Z,20.20
2022-09-09T09:33:56.386Z,21.85
2022-09-09T09:34:19.118Z,20.23
2022-09-09T09:34:41.520Z,21.20
2022-09-09T09:35:11.186Z,19.90
2022-09-09T09:35:38.657Z,20.52
2022-09-09T09:36:04.355Z,20.35
2022-09-09T09:36:56.671Z,20.80
2022-09-09T09:37:29.437Z,20.15
2022-09-09T09:40:15.976Z,21.42
2022-09-09T09:40:56.461Z,20.23
2022-09-09T09:41:36.981Z,22.35
2022-09-09T09:42:02.646Z,20.10
2022-09-09T09:42:28.131Z,18.98
2022-09-09T09:43:09.014Z,22.02
2022-09-09T09:43:34.822Z,21.88
2022-09-09T09:43:56.806Z,20.13
2022-09-09T09:44:33.151Z,19.40
2022-09-09T09:44:55.060Z,20.10
2022-09-09T09:45:36.439Z,21.80
2022-09-09T09:46:43.255Z,18.83
2022-09-09T09:47:31.847Z,20.02
2022-09-09T09:48:07.481Z,23.88
2022-09-09T09:48:36.231Z,22.58
2022-09-09T09:49:03.533Z,20.25
2022-09-09T09:49:28.657Z,18.95
2022-09-09T09:50:03.563Z,20.60
2022-09-09T09:50:27.726Z,22.83
2022-09-09T09:50:57.748Z,18.98
2022-09-09T09:51:22.782Z,23.02
2022-09-09T09:51:45.025Z,24.30
2022-09-09T09:52:23.176Z,22.77
2022-09-09T09:52:59.049Z,21.38
2022-09-09T09:53:27.796Z,24.25
2022-09-09T09:53:50.782Z,23.30
2022-09-09T09:54:18.301Z,21.45
2022-09-09T09:54:43.308Z,22.77
2022-09-09T09:55:13.928Z,22.20
2022-09-09T09:55:38.034Z,21.05
2022-09-09T09:56:06.340Z,19.35
2022-09-09T09:56:33.554Z,23.50
2022-09-09T09:57:08.716Z,22.42
2022-09-09T09:57:33.157Z,22.60
2022-09-09T09:57:56.472Z,26.50
2022-09-09T09:58:18.872Z,20.90
2022-09-09T09:58:54.272Z,24.10
2022-09-09T09:59:39.635Z,23.77
2022-09-09T10:00:16.300Z,24.65
2022-09-09T10:00:50.727Z,23.17
2022-09-09T10:01:30.933Z,22.95
2022-09-09T10:01:55.207Z,23.08
2022-09-09T10:02:26.880Z,23.65
2022-09-09T10:02:55.290Z,22.80
2022-09-09T10:03:30.264Z,23.33
2022-09-09T10:04:19.922Z,22.80
2022-09-09T10:04:42.625Z,23.70
2022-09-09T10:05:22.014Z,24.33
2022-09-09T10:05:48.380Z,24.17
2022-09-09T10:06:10.751Z,23.23
2022-09-09T10:06:39.169Z,24.35
2022-09-09T10:07:12.413Z,25.63
2022-09-09T10:07:35.111Z,23.98
2022-09-09T10:08:10.249Z,22.92
2022-09-09T10:08:46.720Z,24.42
2022-09-09T10:09:27.713Z,23.52
2022-09-09T10:09:56.031Z,25.30
2022-09-09T10:10:36.911Z,21.42
2022-09-09T10:11:22.500Z,24.95
2022-09-09T10:12:32.140Z,20.75
2022-09-09T10:13:02.874Z,26.75
2022-09-09T10:13:39.212Z,27.73
2022-09-09T10:14:21.890Z,24.55
2022-09-09T10:15:01.387Z,22.17
2022-09-09T10:16:02.024Z,21.85
2022-09-09T10:16:33.649Z,24.65
2022-09-09T10:17:32.931Z,23.27
2022-09-09T10:18:19.223Z,23.52
2022-09-09T10:19:01.488Z,21.40
2022-09-09T10:19:34.790Z,24.83
2022-09-09T10:20:17.260Z,23.38
2022-09-09T10:20:56.616Z,21.00
2022-09-09T10:21:19.191Z,23.08
2022-09-09T10:22:02.178Z,23.00
2022-09-09T10:22:35.493Z,20.58
2022-09-09T10:23:23.079Z,25.23
2022-09-09T10:24:06.309Z,23.08
2022-09-09T10:24:42.728Z,21.42
2022-09-09T10:25:36.885Z,24.05
2022-09-09T10:26:23.417Z,22.97
2022-09-09T10:27:01.139Z,24.05
2022-09-09T10:27:45.417Z,20.65
2022-09-09T10:28:49.521Z,24.77
2022-09-09T10:29:46.267Z,26.00
2022-09-09T10:30:34.746Z,20.20
2022-09-09T10:31:15.097Z,21.00
2022-09-09T10:32:15.205Z,24.55
2022-09-09T10:32:42.658Z,24.65
2022-09-09T10:33:11.092Z,21.40
2022-09-09T10:34:05.302Z,21.67
2022-09-09T10:34:57.918Z,21.65
2022-09-09T10:35:49.663Z,22.02
2022-09-09T10:36:19.275Z,21.35
2022-09-09T10:36:47.773Z,21.48
2022-09-09T10:37:30.434Z,23.52
2022-09-09T10:38:15.088Z,21.58
2022-09-09T10:38:46.867Z,20.45
2022-09-09T10:39:40.636Z,20.23
2022-09-09T10:40:31.665Z,21.60
2022-09-09T10:40:59.555Z,20.13
2022-09-09T10:41:35.956Z,19.45
2022-09-09T10:42:09.140Z,25.60